CheckWX is a tool to help pilots better visualize weather data.  It is not intended as a substitute for an official pre-flight weather briefing.

20:09:58 UTC

KDFW METAR
Dallas-Fort Worth International Airport
Dallas-Fort Worth, Texas, USA
Current

1 hour ago

KDFW 231853Z 18006KT 9SM -RA SCT029 BKN047 OVC055 22/18 A2998 RMK AO2 RAB01E24B45 SLP145 P0000 T02220183
Observed
Apr-23 @ 18:53 UTC
Wind
  • 180° at 6 KTS
Visibility
9 SM
Flight Rules
VFR
Conditions
Light Rain
Cloud Levels
  • Scattered at 2,900' AGL
  • Broken at 4,700' AGL
  • Overcast at 5,500' AGL
Temperature
22°C / 72°F
Dewpoint
18°C / 64°F
Humidity
78%
Altimeter
29.98" Hg
Pressure
1015.22 hPa
Current Rain
0.01"
Previous

2 hours ago

KDFW 231753Z 17008KT 10SM FEW020 BKN032 BKN050 OVC200 23/17 A2999 RMK AO2 RAB29E41 SLP150 P0000 60000 T02280167 10239 20183 58005
Observed
Apr-23 @ 17:53 UTC
Wind
  • 170° at 8 KTS
Visibility
10 SM
Flight Rules
VFR
Cloud Levels
  • Few at 2,000' AGL
  • Broken at 3,200' AGL
  • Broken at 5,000' AGL
  • Overcast at 20,000' AGL
Temperature
23°C / 73°F
Dewpoint
17°C / 63°F
Humidity
69%
Altimeter
29.99" Hg
Pressure
1015.62 hPa
Current Rain
0.01"
Previous

3 hours ago

KDFW 231653Z 19012G19KT 10SM SCT027 BKN036 BKN080 OVC200 23/17 A3001 RMK AO2 SLP156 T02330167
Observed
Apr-23 @ 16:53 UTC
Wind
  • 190° at 12 KTS
  • Gusting to 19 KTS
Visibility
10 SM
Flight Rules
VFR
Cloud Levels
  • Scattered at 2,700' AGL
  • Broken at 3,600' AGL
  • Broken at 8,000' AGL
  • Overcast at 20,000' AGL
Temperature
23°C / 73°F
Dewpoint
17°C / 63°F
Humidity
69%
Altimeter
30.01" Hg
Pressure
1016.22 hPa